createdAt,value
2023-03-07T00:02:14.060Z,41.65
2023-03-07T00:04:47.176Z,43.42
2023-03-07T00:07:15.294Z,39.95
2023-03-07T00:09:43.224Z,41.50
2023-03-07T00:12:11.528Z,45.33
2023-03-07T00:14:39.403Z,45.63
2023-03-07T00:17:07.592Z,45.22
2023-03-07T00:19:35.632Z,44.90
2023-03-07T00:22:05.141Z,50.50
2023-03-07T00:24:33.344Z,42.35
2023-03-07T00:27:01.278Z,41.90
2023-03-07T00:29:29.231Z,47.85
2023-03-07T00:31:57.141Z,46.92
2023-03-07T00:34:25.745Z,44.88
2023-03-07T00:36:54.099Z,47.03
2023-03-07T00:39:23.751Z,45.92
2023-03-07T00:41:51.585Z,46.65
2023-03-07T00:44:19.707Z,50.10
2023-03-07T00:46:47.636Z,44.55
2023-03-07T00:49:17.921Z,45.47
2023-03-07T00:51:45.967Z,42.90
2023-03-07T00:54:14.102Z,45.63
2023-03-07T00:56:43.393Z,44.88
2023-03-07T00:59:11.392Z,43.13
2023-03-07T01:01:39.526Z,45.25
2023-03-07T01:04:07.541Z,50.92
2023-03-07T01:06:38.553Z,47.30
2023-03-07T01:09:08.579Z,48.88
2023-03-07T01:11:37.338Z,46.78
2023-03-07T01:14:07.292Z,46.25
2023-03-07T01:16:38.046Z,48.47
2023-03-07T01:19:07.782Z,48.15
2023-03-07T01:21:37.624Z,47.58
2023-03-07T01:24:05.938Z,55.88
2023-03-07T01:26:34.441Z,53.58
2023-03-07T01:29:04.507Z,53.05
2023-03-07T01:31:36.842Z,48.88
2023-03-07T01:34:05.241Z,49.10
2023-03-07T01:36:36.754Z,55.45
2023-03-07T01:39:10.625Z,45.80
2023-03-07T01:41:42.164Z,47.40
2023-03-07T01:44:15.772Z,47.30
2023-03-07T01:46:47.022Z,47.47
2023-03-07T01:49:27.120Z,44.13
2023-03-07T01:52:04.250Z,49.60
2023-03-07T01:54:34.093Z,44.55
2023-03-07T01:57:03.277Z,47.50
2023-03-07T01:59:32.970Z,47.45
2023-03-07T02:02:04.315Z,46.70
2023-03-07T02:04:35.368Z,52.05
2023-03-07T02:07:04.174Z,50.55
2023-03-07T02:09:33.674Z,48.83
2023-03-07T02:12:02.473Z,51.25
2023-03-07T02:14:31.393Z,50.38
2023-03-07T02:16:59.628Z,52.60
2023-03-07T02:19:37.973Z,45.70
2023-03-07T02:22:10.756Z,52.22
2023-03-07T02:24:45.484Z,57.05
2023-03-07T02:27:14.883Z,50.85
2023-03-07T02:29:42.965Z,46.72
2023-03-07T02:32:11.293Z,54.88
2023-03-07T02:34:39.285Z,54.10
2023-03-07T02:37:17.273Z,47.97
2023-03-07T02:39:46.361Z,47.88
2023-03-07T02:42:18.373Z,44.22
2023-03-07T02:44:57.329Z,47.72
2023-03-07T02:47:26.622Z,53.78
2023-03-07T02:49:55.182Z,48.63
2023-03-07T02:52:23.762Z,44.67
2023-03-07T02:54:51.729Z,52.70
2023-03-07T02:57:21.264Z,51.85
2023-03-07T02:59:49.587Z,48.67
2023-03-07T03:02:20.569Z,46.67
2023-03-07T03:04:48.491Z,52.65
2023-03-07T03:07:16.437Z,46.13
2023-03-07T03:09:44.352Z,44.63
2023-03-07T03:12:14.015Z,45.72
2023-03-07T03:14:43.500Z,50.90
2023-03-07T03:17:12.283Z,48.10
2023-03-07T03:19:44.631Z,48.65
2023-03-07T03:22:12.683Z,45.92
2023-03-07T03:24:44.756Z,41.35
2023-03-07T03:27:16.072Z,54.08
2023-03-07T03:29:46.972Z,52.75
2023-03-07T03:32:15.646Z,48.35
2023-03-07T03:34:45.062Z,49.97
2023-03-07T03:37:13.262Z,48.40
2023-03-07T03:39:41.466Z,45.40
2023-03-07T03:42:09.794Z,58.83
2023-03-07T03:44:37.952Z,46.22
2023-03-07T03:47:07.561Z,51.58
2023-03-07T03:49:35.485Z,49.63
2023-03-07T03:52:04.990Z,54.53
2023-03-07T03:54:33.411Z,53.42
2023-03-07T03:57:01.359Z,52.95
2023-03-07T03:59:31.324Z,51.58
2023-03-07T04:01:59.911Z,54.90
2023-03-07T04:04:29.181Z,51.78
2023-03-07T04:06:57.132Z,65.88
2023-03-07T04:09:25.060Z,54.83
2023-03-07T04:11:55.377Z,65.80
2023-03-07T04:14:23.531Z,62.72
2023-03-07T04:16:52.798Z,61.65
2023-03-07T04:19:22.071Z,67.65
2023-03-07T04:21:52.158Z,67.97
2023-03-07T04:24:20.082Z,71.40
2023-03-07T04:26:48.484Z,65.00
2023-03-07T04:29:16.988Z,68.97
2023-03-07T04:31:52.011Z,61.45
2023-03-07T04:34:20.014Z,62.30
2023-03-07T04:36:51.369Z,66.28
2023-03-07T04:39:20.761Z,70.78
2023-03-07T04:41:49.102Z,76.13
2023-03-07T04:44:21.216Z,67.10
2023-03-07T04:46:49.266Z,63.03
2023-03-07T04:49:18.044Z,65.05
2023-03-07T04:51:45.869Z,66.88
2023-03-07T04:54:16.604Z,80.68
2023-03-07T04:56:49.379Z,67.95
2023-03-07T04:59:17.301Z,66.63
2023-03-07T05:01:45.279Z,62.15
2023-03-07T05:04:13.178Z,58.65
2023-03-07T05:06:41.098Z,57.53
2023-03-07T05:09:09.779Z,62.83
2023-03-07T05:11:37.695Z,59.42
2023-03-07T05:14:08.643Z,61.85
2023-03-07T05:16:37.347Z,73.15
2023-03-07T05:19:06.256Z,72.28
2023-03-07T05:21:34.957Z,60.63
2023-03-07T05:24:03.483Z,64.00
2023-03-07T05:26:33.242Z,60.28
2023-03-07T05:29:01.052Z,61.08
2023-03-07T05:31:30.886Z,65.72
2023-03-07T05:33:58.981Z,67.15
2023-03-07T05:36:26.983Z,75.53
2023-03-07T05:38:56.487Z,62.90
2023-03-07T05:41:25.183Z,54.47
2023-03-07T05:43:54.921Z,57.13
2023-03-07T05:46:23.658Z,60.85
2023-03-07T05:48:53.036Z,60.97
2023-03-07T05:51:21.295Z,58.35
2023-03-07T05:53:49.712Z,64.45
2023-03-07T05:56:18.015Z,71.43
2023-03-07T05:58:45.879Z,69.28
2023-03-07T06:01:14.201Z,65.82
2023-03-07T06:03:43.002Z,65.03
2023-03-07T06:06:13.130Z,66.72
2023-03-07T06:08:41.863Z,68.57
2023-03-07T06:11:10.985Z,61.63
2023-03-07T06:13:40.082Z,62.85
2023-03-07T06:16:08.126Z,70.28
2023-03-07T06:18:39.114Z,64.18
2023-03-07T06:21:08.346Z,66.88
2023-03-07T06:23:42.310Z,62.25
2023-03-07T06:26:15.086Z,61.75
2023-03-07T06:28:45.766Z,79.70
2023-03-07T06:31:19.088Z,72.80
2023-03-07T06:33:47.714Z,63.65
2023-03-07T06:36:18.931Z,71.68
2023-03-07T06:38:51.900Z,77.40
2023-03-07T06:41:20.009Z,83.70
2023-03-07T06:43:52.072Z,76.80
2023-03-07T06:46:24.096Z,75.97
2023-03-07T06:48:52.301Z,77.53
2023-03-07T06:51:21.619Z,70.25
2023-03-07T06:53:51.596Z,83.45
2023-03-07T06:56:19.615Z,84.80
2023-03-07T06:58:47.677Z,85.28
2023-03-07T07:01:18.082Z,85.25
2023-03-07T07:03:47.785Z,86.97
2023-03-07T07:06:15.908Z,75.50
2023-03-07T07:08:43.879Z,79.32
2023-03-07T07:11:13.558Z,85.40
2023-03-07T07:13:41.541Z,80.63
2023-03-07T07:16:11.275Z,76.40
2023-03-07T07:18:40.800Z,76.07
2023-03-07T07:21:09.750Z,71.63
2023-03-07T07:23:37.791Z,73.55
2023-03-07T07:26:06.977Z,81.72
2023-03-07T07:28:37.953Z,71.15
2023-03-07T07:31:08.008Z,67.57
2023-03-07T07:33:36.756Z,75.45
2023-03-07T07:36:07.290Z,71.03
2023-03-07T07:38:39.645Z,66.88
2023-03-07T07:41:07.598Z,69.55
2023-03-07T07:43:37.786Z,71.10
2023-03-07T07:46:22.900Z,61.22
2023-03-07T07:48:51.589Z,64.30
2023-03-07T07:51:19.894Z,67.13
2023-03-07T07:53:47.930Z,67.72
2023-03-07T07:56:18.242Z,69.47
2023-03-07T07:58:48.349Z,65.43
2023-03-07T08:01:17.815Z,72.13
2023-03-07T08:03:46.041Z,69.25
2023-03-07T08:06:14.364Z,69.30
2023-03-07T08:08:42.254Z,68.15
2023-03-07T08:11:10.192Z,65.78
2023-03-07T08:13:38.181Z,69.53
2023-03-07T08:16:11.642Z,63.92
2023-03-07T08:18:39.551Z,61.22
2023-03-07T08:21:07.668Z,70.43
2023-03-07T08:23:35.525Z,68.97
2023-03-07T08:26:06.101Z,65.03
2023-03-07T08:28:34.445Z,62.42
2023-03-07T08:31:07.312Z,61.83
2023-03-07T08:33:36.609Z,69.13
2023-03-07T08:36:04.782Z,70.90
2023-03-07T08:38:32.979Z,59.85
2023-03-07T08:41:01.938Z,68.88
2023-03-07T08:43:29.859Z,59.55
2023-03-07T08:45:57.821Z,64.72
2023-03-07T08:48:26.135Z,64.40
2023-03-07T08:50:55.614Z,53.72
2023-03-07T08:53:24.343Z,60.08
2023-03-07T08:55:52.377Z,45.58
2023-03-07T08:58:20.299Z,52.72
2023-03-07T09:00:48.232Z,47.72
2023-03-07T09:03:16.190Z,49.15
2023-03-07T09:05:44.071Z,44.20
2023-03-07T09:08:14.000Z,48.65
2023-03-07T09:10:43.266Z,58.13
2023-03-07T09:13:12.235Z,53.13
2023-03-07T09:15:40.215Z,50.10
2023-03-07T09:18:08.200Z,48.60
2023-03-07T09:20:36.072Z,45.70
2023-03-07T09:23:04.199Z,49.25
2023-03-07T09:25:33.462Z,43.20
2023-03-07T09:28:01.372Z,50.63
2023-03-07T09:30:29.216Z,46.92
2023-03-07T09:32:57.081Z,41.22
2023-03-07T09:35:25.379Z,37.17
2023-03-07T09:37:53.304Z,39.47
2023-03-07T09:40:23.525Z,35.22
2023-03-07T09:42:57.605Z,34.90
2023-03-07T09:45:38.773Z,37.67
2023-03-07T09:48:38.129Z,35.13
2023-03-07T09:51:12.878Z,34.53
2023-03-07T09:53:42.894Z,32.67
2023-03-07T09:56:14.230Z,33.88
2023-03-07T09:58:46.086Z,33.35
2023-03-07T10:01:16.424Z,37.95
2023-03-07T10:03:48.485Z,39.42
2023-03-07T10:06:20.367Z,41.22
2023-03-07T10:08:48.330Z,40.47
2023-03-07T10:11:21.398Z,41.38
2023-03-07T10:13:56.562Z,47.80
2023-03-07T10:16:28.315Z,41.60
2023-03-07T10:19:03.612Z,39.15
2023-03-07T10:21:37.522Z,32.45
2023-03-07T10:24:11.765Z,26.20
2023-03-07T10:26:41.978Z,25.92
2023-03-07T10:29:14.593Z,24.17
2023-03-07T10:31:44.173Z,25.55
2023-03-07T10:34:26.464Z,23.58
2023-03-07T10:37:08.110Z,28.05
2023-03-07T10:39:40.685Z,22.38
2023-03-07T10:42:09.917Z,25.10
2023-03-07T10:44:39.202Z,27.40
2023-03-07T10:47:07.334Z,28.58
2023-03-07T10:49:37.929Z,27.73
2023-03-07T10:52:07.627Z,25.48
2023-03-07T10:54:36.966Z,22.95
2023-03-07T10:57:06.826Z,21.30
2023-03-07T10:59:35.070Z,29.48
2023-03-07T11:02:06.467Z,19.88
2023-03-07T11:04:44.945Z,21.60
2023-03-07T11:07:25.302Z,21.48
2023-03-07T11:09:54.033Z,23.63
2023-03-07T11:12:22.846Z,24.70
2023-03-07T11:14:51.629Z,22.63
2023-03-07T11:17:24.304Z,22.50
2023-03-07T11:19:55.213Z,21.27
2023-03-07T11:22:28.550Z,25.38
2023-03-07T11:25:01.610Z,30.33
2023-03-07T11:27:38.317Z,30.35
2023-03-07T11:30:16.720Z,24.70
2023-03-07T11:35:16.801Z,29.90
2023-03-07T11:37:48.143Z,29.10
2023-03-07T11:40:22.232Z,32.42
2023-03-07T11:42:54.471Z,31.85
2023-03-07T11:45:28.808Z,36.15
2023-03-07T11:48:01.657Z,35.88
2023-03-07T11:50:32.258Z,41.97
2023-03-07T11:53:15.968Z,39.08
2023-03-07T11:55:46.944Z,35.13
2023-03-07T11:58:23.180Z,36.33
2023-03-07T12:00:56.404Z,35.33
2023-03-07T12:03:39.080Z,33.35
2023-03-07T12:06:14.613Z,36.55
2023-03-07T12:08:48.243Z,36.95
2023-03-07T12:11:22.219Z,32.47
2023-03-07T12:13:54.751Z,28.73
2023-03-07T12:16:27.798Z,31.38
2023-03-07T12:19:04.365Z,38.05
2023-03-07T12:21:54.533Z,35.03
2023-03-07T12:24:26.084Z,34.97
2023-03-07T12:26:57.865Z,27.05
2023-03-07T12:29:31.717Z,29.50
2023-03-07T12:32:04.087Z,26.75
2023-03-07T12:34:40.195Z,26.00
2023-03-07T12:37:11.930Z,25.98
2023-03-07T12:39:46.226Z,30.52
2023-03-07T12:42:17.284Z,30.73
2023-03-07T12:44:47.701Z,28.88
2023-03-07T12:47:19.170Z,23.15
2023-03-07T12:49:50.606Z,33.60
2023-03-07T12:52:23.530Z,30.90
2023-03-07T12:54:56.549Z,29.90
2023-03-07T12:57:28.778Z,24.02
2023-03-07T12:59:58.284Z,24.63
2023-03-07T13:02:28.395Z,38.90
2023-03-07T13:04:57.964Z,23.65
2023-03-07T13:07:30.681Z,28.73
2023-03-07T13:09:59.807Z,28.15
2023-03-07T13:12:31.838Z,30.13
2023-03-07T13:15:00.525Z,30.40
2023-03-07T13:17:47.110Z,23.40
2023-03-07T13:20:34.425Z,23.58
2023-03-07T13:23:14.529Z,34.88
2023-03-07T13:25:51.810Z,27.02
2023-03-07T13:28:33.485Z,35.70
2023-03-07T13:31:26.676Z,36.40
2023-03-07T13:33:54.851Z,27.75
2023-03-07T13:36:33.498Z,28.83
2023-03-07T13:39:02.911Z,28.20
2023-03-07T13:41:47.871Z,26.75
2023-03-07T13:44:27.965Z,32.75
2023-03-07T13:47:01.396Z,31.10
2023-03-07T13:49:40.330Z,28.67
2023-03-07T13:52:35.692Z,29.27
2023-03-07T13:55:06.233Z,25.90
2023-03-07T13:57:37.865Z,26.35
2023-03-07T14:00:20.078Z,30.83
2023-03-07T14:02:50.426Z,27.42
2023-03-07T14:05:20.763Z,31.13
2023-03-07T14:07:51.703Z,32.45
2023-03-07T14:10:23.828Z,34.30
2023-03-07T14:13:18.645Z,31.13
2023-03-07T14:16:00.808Z,28.13
2023-03-07T14:18:34.964Z,33.20
2023-03-07T14:21:09.533Z,29.05
2023-03-07T14:23:57.469Z,27.80
2023-03-07T14:26:28.825Z,29.20
2023-03-07T14:28:59.513Z,27.23
2023-03-07T14:31:30.300Z,33.47
2023-03-07T14:33:58.896Z,31.65
2023-03-07T14:36:28.486Z,34.28
2023-03-07T14:38:57.838Z,28.67
2023-03-07T14:41:36.597Z,35.78
2023-03-07T14:44:10.467Z,32.88
2023-03-07T14:46:46.766Z,38.72
2023-03-07T14:49:22.271Z,40.30
2023-03-07T14:51:50.398Z,35.20
2023-03-07T14:54:20.782Z,35.95
2023-03-07T14:56:51.446Z,36.00
2023-03-07T14:59:28.686Z,40.05
2023-03-07T15:01:58.228Z,40.88
2023-03-07T15:04:28.088Z,41.38
2023-03-07T15:06:58.150Z,37.67
2023-03-07T15:09:26.587Z,48.10
2023-03-07T15:12:00.742Z,43.63
2023-03-07T15:14:33.537Z,41.15
2023-03-07T15:17:03.598Z,42.15
2023-03-07T15:19:33.795Z,31.63
2023-03-07T15:22:05.654Z,33.25
2023-03-07T15:24:34.500Z,29.35
2023-03-07T15:27:04.884Z,29.55
2023-03-07T15:29:33.668Z,34.03
2023-03-07T15:32:02.870Z,29.70
2023-03-07T15:34:33.554Z,27.73
2023-03-07T15:37:16.318Z,34.75
2023-03-07T15:39:44.390Z,32.08
2023-03-07T15:42:21.560Z,27.60
2023-03-07T15:44:54.572Z,37.95
2023-03-07T15:47:22.845Z,23.23
2023-03-07T15:49:51.410Z,31.00
2023-03-07T15:52:24.227Z,28.42
2023-03-07T15:54:53.749Z,36.03
2023-03-07T15:57:24.028Z,25.33
2023-03-07T15:59:55.112Z,21.85
2023-03-07T16:02:40.217Z,29.83
2023-03-07T16:05:27.332Z,21.67
2023-03-07T16:07:56.071Z,27.65
2023-03-07T16:10:26.739Z,23.50
2023-03-07T16:12:56.152Z,30.15
2023-03-07T16:15:25.057Z,22.77
2023-03-07T16:17:56.387Z,33.35
2023-03-07T16:20:28.131Z,27.40
2023-03-07T16:22:56.724Z,27.10
2023-03-07T16:25:25.631Z,26.13
2023-03-07T16:27:54.901Z,25.90
2023-03-07T16:30:25.491Z,30.13
2023-03-07T16:33:18.252Z,24.38
2023-03-07T16:35:46.441Z,25.77
2023-03-07T16:38:15.683Z,28.92
2023-03-07T16:40:44.602Z,26.50
2023-03-07T16:43:25.869Z,30.35
2023-03-07T16:45:56.081Z,27.08
2023-03-07T16:48:24.215Z,25.02
2023-03-07T16:50:52.157Z,28.23
2023-03-07T16:53:20.107Z,33.35
2023-03-07T16:55:48.224Z,28.05
2023-03-07T16:58:20.820Z,23.52
2023-03-07T17:00:48.822Z,26.10
2023-03-07T17:03:18.376Z,36.22
2023-03-07T17:05:46.461Z,28.95
2023-03-07T17:08:14.949Z,27.67
2023-03-07T17:10:44.851Z,27.23
2023-03-07T17:13:14.937Z,31.50
2023-03-07T17:15:42.871Z,32.72
2023-03-07T17:18:11.568Z,32.00
2023-03-07T17:20:40.900Z,23.52
2023-03-07T17:23:08.796Z,29.45
2023-03-07T17:25:36.846Z,28.60
2023-03-07T17:28:05.439Z,36.97
2023-03-07T17:30:34.500Z,39.17
2023-03-07T17:33:02.507Z,30.55
2023-03-07T17:35:30.815Z,33.33
2023-03-07T17:38:00.415Z,36.17
2023-03-07T17:40:28.581Z,30.13
2023-03-07T17:42:57.463Z,37.83
2023-03-07T17:45:25.347Z,28.40
2023-03-07T17:47:57.261Z,34.30
2023-03-07T17:50:26.096Z,29.60
2023-03-07T17:52:54.530Z,37.33
2023-03-07T17:55:25.105Z,29.75
2023-03-07T17:57:53.393Z,41.70
2023-03-07T18:00:21.674Z,40.70
2023-03-07T18:02:49.814Z,40.55
2023-03-07T18:05:19.151Z,40.53
2023-03-07T18:07:49.367Z,44.45
2023-03-07T18:10:19.884Z,35.30
2023-03-07T18:12:50.658Z,38.55
2023-03-07T18:15:19.417Z,39.58
2023-03-07T18:17:49.371Z,41.45
2023-03-07T18:20:18.711Z,39.53
2023-03-07T18:22:46.731Z,37.45
2023-03-07T18:25:15.635Z,34.63
2023-03-07T18:27:43.561Z,39.00
2023-03-07T18:30:15.080Z,37.50
2023-03-07T18:32:43.075Z,36.42
2023-03-07T18:35:11.752Z,42.92
2023-03-07T18:37:39.609Z,42.60
2023-03-07T18:40:09.770Z,42.60
2023-03-07T18:42:39.189Z,37.97
2023-03-07T18:45:07.684Z,43.63
2023-03-07T18:47:36.876Z,36.72
2023-03-07T18:50:04.971Z,35.05
2023-03-07T18:52:32.884Z,31.85
2023-03-07T18:55:00.751Z,36.05
2023-03-07T18:57:28.628Z,39.13
2023-03-07T18:59:56.491Z,45.00
2023-03-07T19:02:24.449Z,36.00
2023-03-07T19:04:54.576Z,34.90
2023-03-07T19:07:23.278Z,31.42
2023-03-07T19:09:53.595Z,38.55
2023-03-07T19:12:21.738Z,35.78
2023-03-07T19:14:51.009Z,41.15
2023-03-07T19:17:19.098Z,40.72
2023-03-07T19:19:47.369Z,42.03
2023-03-07T19:22:21.561Z,39.17
2023-03-07T19:24:49.995Z,36.88
2023-03-07T19:27:18.676Z,33.30
2023-03-07T19:29:49.511Z,36.90
2023-03-07T19:32:18.860Z,33.17
2023-03-07T19:34:49.580Z,37.33
2023-03-07T19:37:18.980Z,35.58
2023-03-07T19:39:47.017Z,40.97
2023-03-07T19:42:15.004Z,37.42
2023-03-07T19:44:43.083Z,37.47
2023-03-07T19:47:11.048Z,43.65
2023-03-07T19:49:38.972Z,37.53
2023-03-07T19:52:07.109Z,38.83
2023-03-07T19:54:36.422Z,46.58
2023-03-07T19:57:04.749Z,39.30
2023-03-07T19:59:32.745Z,39.65
2023-03-07T20:02:00.598Z,40.70
2023-03-07T20:04:28.566Z,39.50
2023-03-07T20:06:56.461Z,37.75
2023-03-07T20:09:24.412Z,37.78
2023-03-07T20:11:56.154Z,33.30
2023-03-07T20:14:24.127Z,37.03
2023-03-07T20:16:52.147Z,39.35
2023-03-07T20:19:21.046Z,34.38
2023-03-07T20:21:50.134Z,34.47
2023-03-07T20:24:18.914Z,35.45
2023-03-07T20:26:48.002Z,34.38
2023-03-07T20:29:17.298Z,30.80
2023-03-07T20:31:45.577Z,32.22
2023-03-07T20:34:13.630Z,36.75
2023-03-07T20:36:41.591Z,31.83
2023-03-07T20:39:13.253Z,35.00
2023-03-07T20:41:41.907Z,35.03
2023-03-07T20:44:15.352Z,33.22
2023-03-07T20:46:45.346Z,38.65
2023-03-07T20:49:14.172Z,29.25
2023-03-07T20:51:42.572Z,29.05
2023-03-07T20:54:12.268Z,32.58
2023-03-07T20:56:41.468Z,33.00
2023-03-07T20:59:10.377Z,31.58
2023-03-07T21:01:39.096Z,35.42
2023-03-07T21:04:12.374Z,38.47
2023-03-07T21:06:43.731Z,31.80
2023-03-07T21:09:13.352Z,44.13
2023-03-07T21:11:44.938Z,37.45
2023-03-07T21:14:14.531Z,35.03
2023-03-07T21:16:43.191Z,68.07
2023-03-07T21:19:13.192Z,125.93
2023-03-07T21:21:41.484Z,35.15
2023-03-07T21:24:09.986Z,36.28
2023-03-07T21:26:37.956Z,33.35
2023-03-07T21:29:09.046Z,31.92
2023-03-07T21:31:37.689Z,36.95
2023-03-07T21:34:07.185Z,34.28
2023-03-07T21:36:39.315Z,35.70
2023-03-07T21:39:08.134Z,35.33
2023-03-07T21:41:36.154Z,35.70
2023-03-07T21:44:04.120Z,33.22
2023-03-07T21:46:32.243Z,35.38
2023-03-07T21:49:00.694Z,39.88
2023-03-07T21:51:28.774Z,39.58
2023-03-07T21:54:00.905Z,39.78
2023-03-07T21:56:28.847Z,39.10
2023-03-07T21:58:57.050Z,39.55
2023-03-07T22:01:27.194Z,38.33
2023-03-07T22:03:55.853Z,38.50
2023-03-07T22:06:37.912Z,39.58
2023-03-07T22:09:07.417Z,38.30
2023-03-07T22:11:35.486Z,42.10
2023-03-07T22:14:03.453Z,37.75
2023-03-07T22:16:31.353Z,41.28
2023-03-07T22:19:02.262Z,36.15
2023-03-07T22:21:30.373Z,49.60
2023-03-07T22:24:01.097Z,47.33
2023-03-07T22:26:31.839Z,49.35
2023-03-07T22:29:00.205Z,43.05
2023-03-07T22:31:32.230Z,42.45
2023-03-07T22:34:00.540Z,44.25
2023-03-07T22:36:30.106Z,38.30
2023-03-07T22:39:00.952Z,52.35
2023-03-07T22:41:30.665Z,48.47
2023-03-07T22:43:58.554Z,40.60
2023-03-07T22:46:26.642Z,42.03
2023-03-07T22:48:55.926Z,57.97
2023-03-07T22:51:27.453Z,37.33
2023-03-07T22:53:56.035Z,47.33
2023-03-07T22:56:33.473Z,34.40
2023-03-07T22:59:04.716Z,31.90
2023-03-07T23:01:33.024Z,42.63
2023-03-07T23:04:01.182Z,39.88
2023-03-07T23:06:30.271Z,43.20
2023-03-07T23:08:59.686Z,38.85
2023-03-07T23:11:28.445Z,41.05
2023-03-07T23:13:56.695Z,39.03
2023-03-07T23:16:26.966Z,40.47
2023-03-07T23:18:56.396Z,41.88
2023-03-07T23:21:25.618Z,43.88
2023-03-07T23:23:54.173Z,35.15
2023-03-07T23:26:23.147Z,43.70
2023-03-07T23:28:51.153Z,61.40
2023-03-07T23:31:20.162Z,35.17
2023-03-07T23:33:49.928Z,35.88
2023-03-07T23:36:19.852Z,34.67
2023-03-07T23:38:47.868Z,36.92
2023-03-07T23:41:16.588Z,40.20
2023-03-07T23:43:44.753Z,36.15
2023-03-07T23:46:12.818Z,42.33
2023-03-07T23:48:40.708Z,39.78
2023-03-07T23:51:10.777Z,42.05
2023-03-07T23:53:39.621Z,42.63
2023-03-07T23:56:08.012Z,40.25
2023-03-07T23:58:36.280Z,44.13
